createdAt,value
2023-01-06T00:01:18.621Z,6.80
2023-01-06T00:03:51.173Z,6.80
2023-01-06T00:06:18.756Z,6.80
2023-01-06T00:08:45.621Z,6.80
2023-01-06T00:11:15.275Z,6.80
2023-01-06T00:13:42.402Z,6.70
2023-01-06T00:16:11.925Z,6.80
2023-01-06T00:18:39.119Z,6.80
2023-01-06T00:21:13.012Z,6.80
2023-01-06T00:23:41.865Z,6.80
2023-01-06T00:26:10.043Z,6.80
2023-01-06T00:28:37.311Z,6.70
2023-01-06T00:31:09.477Z,6.80
2023-01-06T00:33:36.959Z,6.80
2023-01-06T00:36:05.299Z,6.80
2023-01-06T00:38:32.642Z,6.80
2023-01-06T00:40:59.446Z,6.80
2023-01-06T00:43:27.646Z,6.80
2023-01-06T00:45:54.470Z,6.80
2023-01-06T00:48:21.329Z,6.80
2023-01-06T00:50:48.109Z,6.70
2023-01-06T00:53:16.896Z,6.70
2023-01-06T00:55:43.640Z,6.70
2023-01-06T00:58:10.484Z,6.70
2023-01-06T01:00:39.009Z,6.70
2023-01-06T01:03:05.852Z,6.60
2023-01-06T01:05:32.787Z,6.70
2023-01-06T01:07:59.717Z,6.60
2023-01-06T01:10:26.621Z,6.50
2023-01-06T01:12:53.912Z,6.50
2023-01-06T01:15:21.349Z,6.50
2023-01-06T01:17:48.238Z,6.40
2023-01-06T01:20:16.253Z,6.40
2023-01-06T01:22:43.004Z,6.30
2023-01-06T01:25:09.972Z,6.20
2023-01-06T01:27:36.756Z,6.20
2023-01-06T01:30:04.213Z,6.10
2023-01-06T01:32:31.180Z,6.00
2023-01-06T01:34:57.910Z,6.00
2023-01-06T01:37:24.840Z,5.90
2023-01-06T01:39:51.712Z,5.90
2023-01-06T01:42:20.923Z,5.80
2023-01-06T01:45:01.691Z,5.70
2023-01-06T01:47:35.352Z,5.60
2023-01-06T01:50:12.949Z,5.60
2023-01-06T01:52:43.062Z,5.60
2023-01-06T01:55:11.441Z,5.60
2023-01-06T01:57:46.574Z,5.60
2023-01-06T02:00:14.089Z,5.60
2023-01-06T02:02:43.065Z,5.60
2023-01-06T02:05:16.648Z,5.50
2023-01-06T02:07:44.009Z,5.40
2023-01-06T02:10:17.187Z,5.40
2023-01-06T02:12:47.366Z,5.30
2023-01-06T02:15:19.730Z,5.30
2023-01-06T02:18:09.172Z,5.30
2023-01-06T02:20:50.925Z,5.20
2023-01-06T02:23:24.296Z,5.30
2023-01-06T02:26:37.077Z,5.20
2023-01-06T02:29:29.702Z,5.20
2023-01-06T02:32:42.647Z,5.10
2023-01-06T02:35:34.269Z,5.00
2023-01-06T02:38:12.544Z,5.10
2023-01-06T02:41:17.453Z,5.00
2023-01-06T02:43:56.466Z,4.90
2023-01-06T02:46:44.328Z,4.80
2023-01-06T02:49:26.089Z,4.80
2023-01-06T02:52:04.288Z,4.80
2023-01-06T02:54:56.228Z,4.90
2023-01-06T02:57:33.917Z,4.90
2023-01-06T03:00:14.915Z,4.90
2023-01-06T03:02:46.960Z,4.80
2023-01-06T03:05:16.977Z,4.80
2023-01-06T03:07:46.535Z,4.80
2023-01-06T03:10:17.344Z,4.80
2023-01-06T03:13:00.262Z,4.70
2023-01-06T03:15:27.608Z,4.80
2023-01-06T03:17:54.750Z,4.80
2023-01-06T03:20:21.651Z,4.70
2023-01-06T03:22:48.514Z,4.60
2023-01-06T03:25:15.926Z,4.60
2023-01-06T03:27:45.802Z,4.60
2023-01-06T03:30:13.365Z,4.60
2023-01-06T03:33:07.714Z,4.50
2023-01-06T03:35:47.158Z,4.50
2023-01-06T03:38:26.117Z,4.40
2023-01-06T03:40:56.218Z,4.40
2023-01-06T03:44:04.967Z,4.40
2023-01-06T03:46:49.849Z,4.20
2023-01-06T03:49:30.548Z,4.20
2023-01-06T03:52:13.426Z,4.20
2023-01-06T03:54:57.107Z,4.00
2023-01-06T03:57:36.834Z,4.00
2023-01-06T04:00:21.646Z,4.00
2023-01-06T04:02:56.483Z,4.00
2023-01-06T04:05:27.398Z,3.80
2023-01-06T04:07:55.448Z,3.70
2023-01-06T04:10:23.925Z,3.70
2023-01-06T04:15:29.432Z,3.80
2023-01-06T04:17:58.522Z,3.70
2023-01-06T04:20:30.432Z,4.30
2023-01-06T04:23:04.612Z,3.70
2023-01-06T04:25:36.330Z,3.70
2023-01-06T04:28:09.371Z,3.70
2023-01-06T04:30:36.446Z,3.70
2023-01-06T04:33:03.604Z,3.80
2023-01-06T04:35:30.496Z,3.80
2023-01-06T04:38:01.805Z,3.70
2023-01-06T04:40:28.659Z,3.70
2023-01-06T04:43:04.286Z,3.70
2023-01-06T04:45:31.437Z,3.70
2023-01-06T04:47:58.271Z,3.60
2023-01-06T04:50:25.039Z,3.50
2023-01-06T04:52:51.862Z,3.40
2023-01-06T04:55:18.777Z,3.40
2023-01-06T04:57:45.709Z,3.30
2023-01-06T05:00:12.978Z,3.10
2023-01-06T05:02:39.853Z,3.10
2023-01-06T05:05:07.277Z,3.10
2023-01-06T05:07:34.298Z,3.10
2023-01-06T05:10:01.025Z,3.10
2023-01-06T05:12:27.856Z,3.10
2023-01-06T05:14:54.689Z,3.10
2023-01-06T05:17:21.547Z,3.10
2023-01-06T05:19:48.347Z,3.10
2023-01-06T05:22:15.476Z,3.20
2023-01-06T05:24:42.406Z,3.30
2023-01-06T05:27:09.579Z,3.20
2023-01-06T05:29:36.703Z,3.10
2023-01-06T05:32:04.704Z,3.00
2023-01-06T05:34:32.000Z,3.00
2023-01-06T05:36:58.739Z,3.20
2023-01-06T05:39:25.541Z,3.20
2023-01-06T05:41:52.265Z,3.20
2023-01-06T05:44:20.795Z,3.30
2023-01-06T05:46:47.850Z,3.40
2023-01-06T05:49:14.685Z,3.30
2023-01-06T05:51:41.608Z,3.40
2023-01-06T05:54:11.676Z,3.40
2023-01-06T05:56:38.552Z,3.40
2023-01-06T05:59:05.576Z,3.40
2023-01-06T06:01:32.731Z,3.30
2023-01-06T06:03:59.923Z,3.30
2023-01-06T06:06:28.388Z,3.30
2023-01-06T06:08:55.436Z,3.40
2023-01-06T06:11:22.531Z,3.40
2023-01-06T06:13:52.874Z,3.40
2023-01-06T06:16:25.873Z,3.40
2023-01-06T06:18:55.422Z,3.30
2023-01-06T06:21:24.984Z,3.30
2023-01-06T06:23:56.800Z,3.40
2023-01-06T06:26:24.725Z,3.40
2023-01-06T06:28:52.021Z,3.40
2023-01-06T06:31:22.463Z,3.40
2023-01-06T06:33:54.165Z,3.40
2023-01-06T06:36:21.582Z,3.40
2023-01-06T06:38:50.384Z,3.40
2023-01-06T06:41:19.009Z,3.50
2023-01-06T06:43:46.229Z,3.50
2023-01-06T06:46:13.110Z,3.50
2023-01-06T06:48:39.944Z,3.40
2023-01-06T06:51:11.039Z,3.40
2023-01-06T06:53:38.384Z,3.50
2023-01-06T06:56:06.577Z,3.50
2023-01-06T06:58:33.853Z,3.50
2023-01-06T07:01:05.053Z,3.50
2023-01-06T07:03:31.998Z,3.50
2023-01-06T07:05:59.363Z,3.60
2023-01-06T07:08:27.621Z,3.60
2023-01-06T07:10:54.672Z,3.50
2023-01-06T07:13:21.981Z,3.40
2023-01-06T07:15:48.799Z,3.30
2023-01-06T07:18:16.223Z,3.20
2023-01-06T07:20:48.619Z,3.30
2023-01-06T07:23:16.411Z,3.40
2023-01-06T07:25:43.421Z,3.40
2023-01-06T07:28:10.259Z,3.40
2023-01-06T07:30:37.220Z,3.40
2023-01-06T07:33:04.945Z,3.50
2023-01-06T07:35:31.912Z,3.50
2023-01-06T07:38:06.291Z,3.70
2023-01-06T07:40:33.763Z,4.30
2023-01-06T07:43:08.031Z,4.30
2023-01-06T07:45:35.362Z,4.60
2023-01-06T07:48:02.517Z,4.80
2023-01-06T07:50:29.984Z,4.60
2023-01-06T07:53:01.472Z,4.50
2023-01-06T07:55:28.479Z,4.50
2023-01-06T07:57:55.365Z,4.60
2023-01-06T08:00:22.402Z,4.70
2023-01-06T08:02:50.131Z,4.80
2023-01-06T08:05:19.230Z,4.70
2023-01-06T08:07:46.132Z,4.70
2023-01-06T08:10:12.957Z,4.60
2023-01-06T08:12:39.863Z,4.60
2023-01-06T08:15:07.392Z,4.60
2023-01-06T08:17:34.272Z,4.60
2023-01-06T08:24:55.783Z,4.60
2023-01-06T08:27:22.663Z,4.60
2023-01-06T08:29:50.292Z,4.60
2023-01-06T08:32:17.539Z,4.70
2023-01-06T08:34:44.630Z,4.60
2023-01-06T08:37:11.679Z,4.70
2023-01-06T08:42:05.976Z,4.80
2023-01-06T08:44:32.763Z,4.80
2023-01-06T08:46:59.620Z,4.90
2023-01-06T08:49:26.383Z,4.90
2023-01-06T08:51:53.343Z,5.00
2023-01-06T08:54:20.152Z,5.00
2023-01-06T08:56:47.382Z,5.10
2023-01-06T08:59:16.927Z,5.10
2023-01-06T09:01:44.570Z,5.20
2023-01-06T09:04:12.818Z,5.20
2023-01-06T09:06:43.009Z,5.30
2023-01-06T09:09:12.060Z,5.30
2023-01-06T09:11:43.950Z,5.40
2023-01-06T09:14:12.072Z,5.50
2023-01-06T09:16:38.927Z,5.50
2023-01-06T09:19:05.793Z,5.60
2023-01-06T09:21:33.170Z,5.70
2023-01-06T09:24:00.042Z,5.80
2023-01-06T09:26:26.939Z,5.90
2023-01-06T09:28:53.734Z,6.00
2023-01-06T09:31:20.707Z,6.00
2023-01-06T09:33:47.659Z,6.10
2023-01-06T09:36:14.510Z,6.20
2023-01-06T09:38:41.338Z,6.30
2023-01-06T09:41:26.983Z,6.40
2023-01-06T09:44:19.066Z,6.40
2023-01-06T09:46:49.181Z,6.40
2023-01-06T09:49:20.980Z,6.70
2023-01-06T09:51:48.250Z,6.70
2023-01-06T09:54:17.943Z,6.60
2023-01-06T09:56:51.775Z,6.60
2023-01-06T09:59:34.269Z,6.50
2023-01-06T10:02:03.082Z,6.50
2023-01-06T10:04:31.019Z,7.20
2023-01-06T10:07:10.722Z,6.60
2023-01-06T10:09:43.449Z,6.80
2023-01-06T10:12:23.000Z,7.00
2023-01-06T10:15:16.878Z,7.00
2023-01-06T10:18:23.637Z,7.20
2023-01-06T10:21:01.925Z,7.20
2023-01-06T10:23:47.607Z,7.30
2023-01-06T10:26:29.416Z,7.40
2023-01-06T10:29:02.698Z,7.40
2023-01-06T10:31:35.224Z,7.40
2023-01-06T10:34:03.487Z,7.60
2023-01-06T10:36:42.191Z,7.80
2023-01-06T10:39:16.400Z,7.70
2023-01-06T10:42:15.874Z,7.60
2023-01-06T10:44:42.851Z,7.70
2023-01-06T10:47:28.490Z,8.20
2023-01-06T10:49:55.428Z,8.10
2023-01-06T10:52:24.258Z,8.20
2023-01-06T10:54:55.063Z,8.20
2023-01-06T10:57:31.243Z,8.00
2023-01-06T11:00:14.490Z,8.10
2023-01-06T11:02:47.446Z,8.30
2023-01-06T11:05:17.685Z,8.00
2023-01-06T11:08:13.564Z,8.10
2023-01-06T11:10:47.544Z,8.00
2023-01-06T11:13:23.606Z,7.90
2023-01-06T11:15:50.827Z,7.80
2023-01-06T11:18:28.021Z,7.90
2023-01-06T11:21:13.365Z,7.90
2023-01-06T11:23:43.087Z,7.80
2023-01-06T11:26:17.820Z,7.90
2023-01-06T11:28:47.619Z,8.00
2023-01-06T11:31:14.485Z,8.20
2023-01-06T11:33:53.119Z,8.30
2023-01-06T11:36:22.730Z,8.30
2023-01-06T11:38:55.856Z,8.30
2023-01-06T11:41:31.055Z,8.40
2023-01-06T11:44:09.858Z,8.40
2023-01-06T11:46:39.650Z,8.40
2023-01-06T11:49:33.988Z,8.50
2023-01-06T11:52:08.332Z,8.80
2023-01-06T11:54:39.940Z,9.10
2023-01-06T11:57:23.218Z,9.10
2023-01-06T12:00:28.472Z,9.10
2023-01-06T12:03:19.772Z,9.10
2023-01-06T12:06:13.882Z,9.00
2023-01-06T12:08:44.612Z,9.00
2023-01-06T12:11:21.995Z,9.00
2023-01-06T12:14:08.462Z,9.00
2023-01-06T12:16:40.866Z,9.10
2023-01-06T12:19:29.129Z,9.20
2023-01-06T12:21:56.380Z,9.30
2023-01-06T12:24:24.423Z,9.50
2023-01-06T12:26:52.635Z,9.50
2023-01-06T12:29:21.798Z,9.50
2023-01-06T12:31:56.381Z,9.60
2023-01-06T12:34:48.527Z,9.50
2023-01-06T12:37:30.617Z,9.30
2023-01-06T12:40:35.152Z,9.30
2023-01-06T12:43:19.806Z,9.30
2023-01-06T12:46:13.306Z,9.30
2023-01-06T12:48:54.296Z,9.20
2023-01-06T12:51:26.875Z,9.30
2023-01-06T12:53:56.418Z,9.40
2023-01-06T12:56:35.225Z,9.40
2023-01-06T12:59:24.510Z,9.40
2023-01-06T13:02:01.634Z,9.50
2023-01-06T13:04:50.136Z,9.60
2023-01-06T13:07:19.896Z,9.60
2023-01-06T13:10:05.723Z,9.50
2023-01-06T13:12:46.408Z,9.40
2023-01-06T13:15:25.785Z,9.50
2023-01-06T13:18:12.089Z,9.40
2023-01-06T13:20:50.529Z,9.50
2023-01-06T13:23:29.492Z,9.50
2023-01-06T13:26:33.902Z,9.50
2023-01-06T13:29:29.719Z,9.50
2023-01-06T13:32:15.194Z,9.60
2023-01-06T13:35:07.560Z,9.60
2023-01-06T13:37:35.659Z,9.60
2023-01-06T13:40:29.819Z,9.60
2023-01-06T13:43:17.742Z,9.70
2023-01-06T13:45:48.472Z,9.70
2023-01-06T13:48:21.148Z,9.80
2023-01-06T13:50:51.645Z,9.80
2023-01-06T13:53:22.288Z,9.70
2023-01-06T13:56:09.993Z,9.70
2023-01-06T13:58:37.741Z,9.70
2023-01-06T14:01:06.278Z,9.60
2023-01-06T14:03:33.804Z,9.50
2023-01-06T14:06:02.129Z,9.50
2023-01-06T14:08:32.927Z,9.40
2023-01-06T14:11:07.074Z,9.20
2023-01-06T14:13:39.929Z,9.20
2023-01-06T14:16:10.642Z,9.20
2023-01-06T14:18:47.335Z,9.30
2023-01-06T14:21:14.172Z,9.20
2023-01-06T14:24:17.918Z,9.20
2023-01-06T14:26:51.266Z,9.30
2023-01-06T14:29:46.072Z,9.20
2023-01-06T14:32:16.951Z,9.20
2023-01-06T14:34:58.639Z,9.10
2023-01-06T14:37:29.820Z,9.00
2023-01-06T14:39:59.141Z,9.00
2023-01-06T14:42:39.036Z,9.00
2023-01-06T14:45:13.170Z,8.90
2023-01-06T14:47:53.608Z,8.80
2023-01-06T14:50:26.372Z,8.70
2023-01-06T14:53:01.021Z,8.70
2023-01-06T14:55:32.122Z,8.60
2023-01-06T14:57:59.254Z,8.50
2023-01-06T15:00:29.914Z,8.50
2023-01-06T15:03:03.025Z,8.40
2023-01-06T15:05:40.453Z,8.40
2023-01-06T15:08:14.956Z,8.30
2023-01-06T15:10:47.765Z,8.20
2023-01-06T15:13:28.822Z,8.10
2023-01-06T15:16:07.611Z,8.00
2023-01-06T15:18:36.183Z,8.00
2023-01-06T15:21:03.630Z,8.00
2023-01-06T15:23:30.472Z,7.90
2023-01-06T15:25:57.847Z,7.90
2023-01-06T15:28:32.911Z,7.80
2023-01-06T15:31:02.005Z,7.80
2023-01-06T15:33:38.360Z,7.70
2023-01-06T15:36:07.130Z,7.70
2023-01-06T15:38:40.087Z,7.70
2023-01-06T15:41:27.337Z,7.70
2023-01-06T15:43:54.469Z,7.60
2023-01-06T15:46:24.482Z,7.60
2023-01-06T15:48:52.223Z,7.50
2023-01-06T15:51:21.570Z,7.60
2023-01-06T15:53:54.785Z,7.60
2023-01-06T15:56:26.125Z,7.60
2023-01-06T15:58:55.013Z,7.50
2023-01-06T16:01:23.819Z,7.50
2023-01-06T16:03:56.944Z,7.50
2023-01-06T16:06:28.376Z,7.50
2023-01-06T16:09:27.808Z,7.50
2023-01-06T16:12:04.082Z,7.50
2023-01-06T16:14:35.074Z,7.50
2023-01-06T16:17:12.701Z,7.40
2023-01-06T16:19:52.314Z,7.40
2023-01-06T16:22:38.430Z,7.40
2023-01-06T16:25:26.781Z,7.50
2023-01-06T16:27:56.195Z,7.50
2023-01-06T16:30:36.771Z,7.50
2023-01-06T16:33:04.172Z,7.60
2023-01-06T16:35:33.742Z,7.60
2023-01-06T16:38:01.120Z,7.60
2023-01-06T16:40:29.253Z,7.60
2023-01-06T16:43:01.412Z,7.70
2023-01-06T16:45:42.794Z,7.70
2023-01-06T16:48:17.002Z,7.60
2023-01-06T16:50:53.255Z,7.60
2023-01-06T16:53:22.348Z,7.60
2023-01-06T16:55:56.899Z,7.50
2023-01-06T16:58:26.005Z,7.50
2023-01-06T17:00:54.839Z,7.50
2023-01-06T17:03:28.757Z,7.40
2023-01-06T17:05:55.753Z,7.40
2023-01-06T17:08:35.973Z,7.40
2023-01-06T17:11:19.733Z,7.40
2023-01-06T17:13:52.177Z,7.40
2023-01-06T17:16:21.984Z,7.40
2023-01-06T17:18:50.929Z,7.40
2023-01-06T17:21:38.612Z,7.30
2023-01-06T17:24:15.777Z,7.30
2023-01-06T17:26:57.926Z,7.30
2023-01-06T17:29:28.577Z,7.30
2023-01-06T17:31:57.051Z,7.30
2023-01-06T17:34:36.736Z,7.30
2023-01-06T17:37:24.615Z,7.30
2023-01-06T17:39:52.686Z,7.30
2023-01-06T17:42:23.913Z,7.30
2023-01-06T17:44:56.776Z,7.30
2023-01-06T17:47:28.271Z,7.30
2023-01-06T17:50:00.281Z,7.30
2023-01-06T17:52:40.297Z,7.30
2023-01-06T17:55:25.791Z,7.30
2023-01-06T17:57:56.434Z,7.30
2023-01-06T18:00:27.566Z,7.30
2023-01-06T18:03:01.562Z,7.20
2023-01-06T18:05:30.858Z,7.20
2023-01-06T18:08:11.987Z,7.20
2023-01-06T18:10:42.961Z,7.20
2023-01-06T18:13:21.080Z,7.20
2023-01-06T18:15:58.461Z,7.20
2023-01-06T18:18:38.543Z,7.10
2023-01-06T18:21:14.472Z,7.10
2023-01-06T18:23:46.623Z,7.10
2023-01-06T18:26:28.569Z,7.10
2023-01-06T18:29:03.164Z,7.10
2023-01-06T18:31:38.039Z,7.20
2023-01-06T18:34:39.806Z,7.20
2023-01-06T18:37:07.008Z,7.10
2023-01-06T18:39:42.730Z,7.10
2023-01-06T18:42:35.309Z,7.10
2023-01-06T18:45:08.128Z,7.10
2023-01-06T18:47:37.573Z,7.10
2023-01-06T18:50:23.435Z,7.10
2023-01-06T18:52:55.019Z,7.00
2023-01-06T18:55:26.209Z,7.00
2023-01-06T18:57:57.669Z,7.00
2023-01-06T19:00:33.365Z,7.00
2023-01-06T19:03:16.679Z,6.90
2023-01-06T19:05:44.828Z,6.90
2023-01-06T19:08:31.405Z,6.90
2023-01-06T19:10:58.435Z,6.90
2023-01-06T19:13:28.958Z,6.90
2023-01-06T19:16:02.637Z,6.80
2023-01-06T19:18:33.706Z,6.80
2023-01-06T19:21:05.479Z,6.80
2023-01-06T19:23:34.175Z,6.80
2023-01-06T19:26:05.446Z,6.80
2023-01-06T19:28:37.604Z,6.80
2023-01-06T19:31:05.774Z,6.70
2023-01-06T19:33:42.590Z,6.80
2023-01-06T19:39:56.819Z,6.80
2023-01-06T19:42:29.691Z,6.80
2023-01-06T19:45:09.424Z,6.80
2023-01-06T19:47:40.916Z,6.80
2023-01-06T19:50:21.651Z,6.80
2023-01-06T19:52:54.109Z,6.80
2023-01-06T19:55:29.862Z,6.80
2023-01-06T19:58:04.625Z,6.80
2023-01-06T20:00:46.128Z,6.80
2023-01-06T20:03:37.126Z,6.80
2023-01-06T20:06:04.619Z,6.80
2023-01-06T20:08:31.399Z,6.80
2023-01-06T20:10:58.488Z,6.80
2023-01-06T20:13:25.370Z,6.80
2023-01-06T20:15:52.402Z,6.80
2023-01-06T20:18:19.190Z,6.80
2023-01-06T20:20:46.243Z,6.80
2023-01-06T20:23:13.112Z,6.70
2023-01-06T20:25:39.946Z,6.70
2023-01-06T20:28:07.032Z,6.70
2023-01-06T20:30:33.794Z,6.70
2023-01-06T20:33:00.697Z,6.70
2023-01-06T20:35:27.521Z,6.70
2023-01-06T20:37:54.253Z,6.70
2023-01-06T20:40:21.306Z,6.60
2023-01-06T20:42:48.098Z,6.60
2023-01-06T20:45:14.897Z,6.60
2023-01-06T20:47:43.744Z,6.60
2023-01-06T20:50:13.871Z,6.60
2023-01-06T20:52:41.867Z,6.60
2023-01-06T20:55:09.383Z,6.60
2023-01-06T20:57:36.520Z,6.50
2023-01-06T21:00:04.907Z,6.50
2023-01-06T21:02:31.932Z,6.50
2023-01-06T21:04:58.771Z,6.50
2023-01-06T21:07:27.789Z,6.50
2023-01-06T21:09:54.640Z,6.50
2023-01-06T21:12:21.432Z,6.50
2023-01-06T21:14:48.363Z,6.50
2023-01-06T21:17:15.368Z,6.50
2023-01-06T21:19:42.211Z,6.40
2023-01-06T21:22:09.643Z,6.50
2023-01-06T21:24:36.549Z,6.50
2023-01-06T21:27:03.484Z,6.50
2023-01-06T21:29:30.209Z,6.50
2023-01-06T21:31:57.440Z,6.50
2023-01-06T21:34:24.325Z,6.60
2023-01-06T21:36:51.670Z,6.80
2023-01-06T21:39:18.671Z,6.80
2023-01-06T21:42:04.085Z,6.70
2023-01-06T21:44:31.348Z,6.60
2023-01-06T21:46:59.766Z,6.60
2023-01-06T21:49:26.607Z,6.60
2023-01-06T21:51:54.823Z,6.60
2023-01-06T21:54:21.827Z,6.50
2023-01-06T21:56:49.506Z,6.50
2023-01-06T21:59:17.031Z,6.60
2023-01-06T22:01:44.319Z,6.50
2023-01-06T22:04:11.426Z,6.50
2023-01-06T22:06:40.542Z,6.50
2023-01-06T22:09:08.559Z,6.40
2023-01-06T22:11:37.438Z,6.40
2023-01-06T22:14:05.542Z,6.40
2023-01-06T22:16:33.169Z,6.30
2023-01-06T22:19:00.351Z,6.30
2023-01-06T22:21:28.247Z,6.30
2023-01-06T22:23:57.164Z,6.30
2023-01-06T22:26:23.939Z,6.30
2023-01-06T22:28:51.252Z,6.20
2023-01-06T22:31:18.874Z,6.20
2023-01-06T22:33:45.718Z,6.20
2023-01-06T22:36:12.569Z,6.20
2023-01-06T22:38:39.462Z,6.20
2023-01-06T22:41:07.153Z,6.20
2023-01-06T22:43:34.219Z,6.10
2023-01-06T22:46:01.024Z,6.10
2023-01-06T22:48:28.203Z,6.10
2023-01-06T22:51:04.586Z,6.10
2023-01-06T22:53:34.622Z,6.10
2023-01-06T22:56:07.051Z,6.10
2023-01-06T22:58:36.020Z,6.10
2023-01-06T23:01:03.730Z,6.10
2023-01-06T23:03:33.388Z,6.10
2023-01-06T23:06:06.935Z,6.20
2023-01-06T23:08:36.522Z,6.10
2023-01-06T23:11:10.314Z,6.10
2023-01-06T23:13:38.229Z,6.10
2023-01-06T23:16:06.864Z,6.10
2023-01-06T23:18:35.868Z,6.10
2023-01-06T23:21:12.359Z,6.10
2023-01-06T23:23:40.551Z,6.00
2023-01-06T23:26:13.664Z,6.00
2023-01-06T23:28:41.748Z,6.00
2023-01-06T23:31:12.367Z,6.00
2023-01-06T23:33:45.531Z,6.00
2023-01-06T23:36:14.300Z,6.00
2023-01-06T23:38:41.211Z,5.90
2023-01-06T23:41:11.601Z,5.90
2023-01-06T23:43:39.355Z,6.00
2023-01-06T23:46:10.184Z,5.90
2023-01-06T23:48:37.266Z,6.00
2023-01-06T23:51:05.511Z,6.00
2023-01-06T23:53:33.635Z,5.90
2023-01-06T23:56:02.831Z,5.90
2023-01-06T23:58:33.433Z,5.90
